Tiempo atmosférico en la estación meteorológica de Seira, Huesca (825 m.)



Fecha
DESCASC
Temp. máxima en grados centígrados (hora)
DESCASC
Temp. mínima en grados centígrados (hora)
DESCASC
Temp. media en grados centígrados
DESCASC
Racha de viento máxima en m/sg (hora)
DESCASC
Velocidad máxima media en intervalos de 10 minutos(hora)
DESCASC
Precipitaciones diarias en mm
DESCASC
Precipitaciones de 00:00 a 06:00 en mm
DESCASC
Precipitaciones de 06:00 a 12:00 en mm
DESCASC
Precipitaciones de 12:00 a 18:00 en mm
DESCASC
Precipitaciones de 18:00 a 24:00 en mm
DESCASC
27-10-2020 14.6 (15:20) 0.2 (07:30) 7.4 6.67 (14:40) 3.61 (14:10) 0 0 0 0 0
26-10-2020 14.1 (14:10) 1.7 (23:50) 7.9 6.39 (13:30) 2.78 (13:30) 2.6 2.4 0 0.2 0
25-10-2020 15.2 (13:10) 3.5 (06:30) 9.3 6.39 (15:30) 3.06 (13:20) 19.2 0 0 0.2 19
24-10-2020 16.8 (16:10) 3.4 (00:00) 10.1 6.67 (16:20) 2.78 (16:30) 0 0 0 0 0
23-10-2020 14.7 (13:30) 5.8 (00:00) 10.3 6.39 (13:50) 3.89 (13:50) 6.6 4 0 2.6 0
22-10-2020 15.5 (15:30) 11.6 (00:00) 13.6 1.94 (03:40) 1.11 (03:50) 20 3.8 7 2 7.2
21-10-2020 19.2 (15:00) 9.7 (00:00) 14.5 7.5 (05:30) 3.06 (05:50) 2.2 0.2 1.8 0.2 0
20-10-2020 14.9 (15:50) 6.2 (00:00) 10.5 4.17 (15:00) 1.67 (16:10) 0.4 0 0 0.4 0
19-10-2020 20.2 (15:40) 2 (00:00) 11.1 6.11 (17:50) 3.33 (16:00) 0 0 0 0 0
18-10-2020 18.6 (15:50) 1.3 (00:00) 10 7.78 (15:30) 4.17 (16:40) 0 0 0 0 0
17-10-2020 16.3 (16:40) -0.6 (-00:0) 7.8 7.22 (16:20) 4.17 (16:20) 0 0 0 0 0
16-10-2020 15.3 (16:00) -1.6 (-00:0) 6.9 7.5 (14:20) 4.17 (14:30) 0 0 0 0 0
15-10-2020 13.3 (17:10) 1.5 (00:00) 7.4 8.61 (13:40) 3.61 (14:30) 0 0 0 0 0
14-10-2020 14.1 (16:50) 0.7 (00:00) 7.4 7.78 (20:10) 3.33 (20:10) 0 0 0 0 0
13-10-2020 -- (--) -- (--) -- -- (--) -- (--) -- -- -- 0 0
12-10-2020 -- (--) -- (--) -- -- (--) -- (--) -- -- -- -- --
11-10-2020 15.6 (15:20) 7 (00:00) 11.3 13.06 (13:20) 6.11 (14:50) 0 0 0 0 0
10-10-2020 20.1 (15:50) 10.3 (00:00) 15.2 6.11 (23:59) 3.33 (15:30) 0 0 0 0 0
09-10-2020 23.9 (16:20) 9.5 (00:00) 16.7 6.67 (15:00) 3.06 (14:50) 0 0 0 0 0
08-10-2020 23.1 (16:40) 8 (00:00) 15.6 7.5 (14:00) 4.17 (14:40) 0 0 0 0 0
07-10-2020 23.1 (16:10) 8.9 (00:00) 16 8.89 (15:00) 5 (15:00) 0 0 0 0 0
06-10-2020 21 (15:50) 4 (00:00) 12.5 6.94 (14:50) 3.61 (16:00) 0 0 0 0 0
05-10-2020 17.4 (16:10) 2 (00:00) 9.7 6.94 (13:40) 5 (13:40) 0 0 0 0 0
04-10-2020 13.4 (17:00) 4.3 (00:00) 8.8 7.22 (17:30) 3.89 (17:20) 1.6 0 1.4 0.2 0
03-10-2020 9.9 (16:00) 3.9 (00:00) 6.9 6.94 (17:30) 3.33 (11:50) 1.2 0.2 0 0.4 0.6
02-10-2020 11.5 (06:20) 3.9 (00:00) 7.7 8.61 (15:50) 3.06 (13:50) 50.2 8.2 36.6 5.4 0
01-10-2020 20.9 (15:00) 7.7 (00:00) 14.3 8.61 (13:40) 3.89 (13:50) 0 0 0 0 0
30-09-2020 24 (16:00) 6.9 (00:00) 15.5 6.67 (14:50) 3.89 (14:00) 0 0 0 0 0

Gráficas

Temp. máximas Temp. mínimas Temp. medias Precipitaciones Rachas de viento máximas Velocidades máximas media en intervalos de 10 minutos

Datos horarios

Fecha y hora oficial Temperatura (ºC) Velocidad del viento (km/h) Dirección del viento Racha (km/h) Dirección de racha Precipitación (mm) Presión (hPa) Tendencia (hPa) Humedad (%)
2020-10-29 23:00:00 7.2 0 Calma 4 Norte 0 -- -- 97
2020-10-29 22:00:00 7.5 0 Calma 2 Sudeste 0 -- -- 95
2020-10-29 21:00:00 8.1 0 Calma 3 Sudeste 0 -- -- 94
2020-10-29 20:00:00 9 0 Calma 2 Sur 0 -- -- 92
2020-10-29 19:00:00 10.3 0 Calma 2 Nordeste 0 -- -- 89
2020-10-29 18:00:00 12.4 0 Calma 4 Sudoeste 0 -- -- 81
2020-10-29 17:00:00 17.1 2 Sudeste 17 Sudoeste 0 -- -- 66
2020-10-29 16:00:00 18.6 8 Sudoeste 18 Sur 0 -- -- 56
2020-10-29 15:00:00 18.7 6 Sudoeste 21 Sudoeste 0 -- -- 56
2020-10-29 14:00:00 18.2 3 Sudoeste 9 Sur 0 -- -- 60
2020-10-29 13:00:00 15.4 3 Norte 6 Norte 0 -- -- 70
2020-10-29 12:00:00 12.3 0 Calma 6 Norte 0 -- -- 79
2020-10-29 11:00:00 7.6 0 Calma 5 Nordeste 0 -- -- 93
2020-10-29 10:00:00 5.5 0 Calma 7 Norte 0 -- -- 99
2020-10-29 09:00:00 4.7 0 Calma 4 Sur 0 -- -- 99
2020-10-29 08:00:00 4.6 0 Calma 6 Norte 0 -- -- 98
2020-10-29 07:00:00 4.7 0 Calma 6 Sudoeste 0 -- -- 97
2020-10-29 06:00:00 5.2 0 Calma 5 Sur 0 -- -- 98
2020-10-29 05:00:00 5.4 0 Calma 4 Sudoeste 0 -- -- 98
2020-10-29 04:00:00 5.5 0 Calma 4 Norte 0 -- -- 98
2020-10-29 03:00:00 5.6 0 Calma 6 Norte 0 -- -- 98
2020-10-29 02:00:00 5.8 0 Calma 2 Sur 0 -- -- 98
2020-10-29 01:00:00 6.2 0 Calma 3 Norte 0 -- -- 98
2020-10-29 00:00:00 6.4 0 Calma 3 Sudeste 0 -- -- 97
2020-10-28 23:00:00 6.9 2 Este 4 Sudeste 0 -- -- 96
2020-10-28 22:00:00 7.8 0 Calma 3 Nordeste 0 -- -- 94
2020-10-28 21:00:00 8.9 0 Calma 2 Oeste 0 -- -- 92
2020-10-28 20:00:00 10.5 2 Sudeste 4 Sudeste 0 -- -- 89
2020-10-28 19:00:00 11.1 0 Calma 7 Sur 0 -- -- 87
2020-10-28 18:00:00 12.4 0 Calma 4 Sudeste 0 -- -- 81
2020-10-28 17:00:00 16.6 4 Oeste 19 Oeste 0 -- -- 63
2020-10-28 16:00:00 18.1 8 Sudoeste 25 Sudoeste 0 -- -- 57
2020-10-28 15:00:00 17.6 10 Sudoeste 26 Sudoeste 0 -- -- 59
2020-10-28 14:00:00 17 14 Sudoeste 24 Sur 0 -- -- 60
2020-10-28 13:00:00 15.9 0 Calma 6 Norte 0 -- -- 66
2020-10-28 12:00:00 12.7 2 Norte 5 Sudoeste 0 -- -- 77
2020-10-28 11:00:00 8.2 0 Calma 5 Norte 0 -- -- 88
2020-10-28 10:00:00 6.7 0 Calma 5 Sudoeste 0 -- -- 93
2020-10-28 09:00:00 5.3 0 Calma 5 Noroeste 0 -- -- 97
2020-10-28 08:00:00 4.6 0 Calma 6 Sudoeste 0 -- -- 98
2020-10-28 07:00:00 4.3 0 Calma 4 Norte 0 -- -- 96
2020-10-28 06:00:00 4.1 0 Calma 6 Sur 0 -- -- 98
2020-10-28 05:00:00 3.8 0 Calma 4 Noroeste 0 -- -- 98
2020-10-28 04:00:00 3.8 2 Sur 5 Oeste 0 -- -- 97
2020-10-28 03:00:00 4.2 0 Calma 3 Nordeste 0 -- -- 97
2020-10-28 02:00:00 4 0 Calma 3 Sur 0 -- -- 98
2020-10-28 01:00:00 4.1 0 Calma 4 Sur 0 -- -- 97
2020-10-28 00:00:00 4.3 0 Calma 4 Sudoeste 0 -- -- 97
2020-10-27 23:00:00 4.9 0 Calma 3 Este 0 -- -- 95
2020-10-27 22:00:00 5.8 0 Calma 4 Sudoeste 0 -- -- 94
2020-10-27 21:00:00 6.8 0 Calma 4 Oeste 0 -- -- 92
2020-10-27 20:00:00 6.8 0 Calma 4 Sudeste 0 -- -- 91
2020-10-27 19:00:00 7.6 0 Calma 4 Este 0 -- -- 86
2020-10-27 18:00:00 9.8 0 Calma 6 Oeste 0 -- -- 81
2020-10-27 17:00:00 13.3 5 Sudoeste 19 Sudoeste 0 -- -- 61
2020-10-27 16:00:00 14.1 8 Sudoeste 24 Sudoeste 0 -- -- 50
2020-10-27 15:00:00 14.5 9 Sudoeste 24 Sudoeste 0 -- -- 48
2020-10-27 14:00:00 14 4 Oeste 19 Oeste 0 -- -- 53
2020-10-27 13:00:00 11.6 3 Norte 6 Este 0 -- -- 65
2020-10-27 12:00:00 8.7 2 Noroeste 8 Sudoeste 0 -- -- 70
2020-10-27 11:00:00 5.6 2 Oeste 5 Sur 0 -- -- 81
2020-10-27 10:00:00 3.4 0 Calma 4 Sur 0 -- -- 94
2020-10-27 09:00:00 1.5 0 Calma 9 Norte 0 -- -- 98
2020-10-27 08:00:00 0.4 0 Calma 4 Norte 0 -- -- 98
2020-10-27 07:00:00 0.5 2 Sur 4 Sur 0 -- -- 98
2020-10-27 06:00:00 0.5 0 Calma 4 Este 0 -- -- 98
2020-10-27 05:00:00 0.5 0 Calma 3 Este 0 -- -- 98
2020-10-27 04:00:00 0.9 0 Calma 4 Norte 0 -- -- 97
2020-10-27 03:00:00 1.3 2 Sudeste 4 Este 0 -- -- 98
2020-10-27 02:00:00 1 2 Sur 3 Sur 0 -- -- 97
2020-10-27 01:00:00 1.3 2 Nordeste 4 Sudeste 0 -- -- 96
2020-10-27 00:00:00 1.7 2 Este 4 Sudeste 0 -- -- 96
2020-10-26 23:00:00 2.2 2 Sur 4 Sudeste 0 -- -- 95
2020-10-26 22:00:00 2.7 2 Sur 5 Norte 0 -- -- 93
2020-10-26 21:00:00 3.7 3 Este 4 Sudeste 0 -- -- 89
2020-10-26 20:00:00 5.1 0 Calma 6 Sudeste 0 -- -- 83
2020-10-26 19:00:00 7.2 3 Este 19 Sudoeste 0 -- -- 71
2020-10-26 18:00:00 10.1 7 Nordeste 20 Norte 0 -- -- 52
2020-10-26 17:00:00 11.8 6 Norte 21 Sur 0 -- -- 46
2020-10-26 16:00:00 12.3 6 Norte 16 Norte 0 -- -- 46
2020-10-26 15:00:00 12.5 6 Sudoeste 18 Sudoeste 0.2 -- -- 51
2020-10-26 14:00:00 14 4 Norte 23 Oeste 0 -- -- 45
2020-10-26 13:00:00 12.8 8 Sur 18 Sudoeste 0 -- -- 56
2020-10-26 12:00:00 10.5 3 Sur 11 Sudoeste 0 -- -- 78
2020-10-26 11:00:00 7 2 Norte 5 Norte 0 -- -- 100
2020-10-26 10:00:00 5 0 Calma 3 Sur 0 -- -- 100
2020-10-26 09:00:00 4.1 0 Calma 5 Sudeste 0 -- -- 100
2020-10-26 08:00:00 4.1 0 Calma 4 Este 0 -- -- 99
2020-10-26 07:00:00 4.9 0 Calma 7 Norte 0 -- -- 97
2020-10-26 06:00:00 6.4 0 Calma 5 Sur 0.6 -- -- 98
2020-10-26 05:00:00 6.8 2 Nordeste 4 Nordeste 0 -- -- 99
2020-10-26 04:00:00 7.4 0 Calma 4 Noroeste 0.2 -- -- 100
2020-10-26 03:00:00 7.4 0 Calma 4 Este 0.2 -- -- 99
2020-10-26 02:00:00 7.9 0 Calma 5 Sudoeste 0.4 -- -- 99
2020-10-26 01:00:00 8.4 0 Calma 6 Sur 1 -- -- 98
2020-10-26 00:00:00 8.9 6 Sur 10 Sudoeste 3 -- -- 98
2020-10-25 23:00:00 9.6 3 Nordeste 11 Sudoeste 7.4 -- -- 99
2020-10-25 22:00:00 9.5 0 Calma 3 Sudoeste 3.8 -- -- 98
2020-10-25 21:00:00 9.7 0 Calma 4 Oeste 3 -- -- 98
2020-10-25 20:00:00 9.9 0 Calma 4 Sudeste 1.6 -- -- 96
2020-10-25 19:00:00 10.3 0 Calma 4 Nordeste 0.2 -- -- 93
2020-10-25 18:00:00 10.9 3 Noroeste 6 Oeste 0 -- -- 87
2020-10-25 17:00:00 11.4 2 Este 4 Norte 0 -- -- 87
2020-10-25 16:00:00 12.4 2 Sur 23 Sudoeste 0.2 -- -- 77
2020-10-25 15:00:00 13.7 8 Sudoeste 19 Sudeste 0 -- -- 64
2020-10-25 14:00:00 14.7 8 Sudoeste 21 Sudoeste 0 -- -- 61
2020-10-25 13:00:00 14.6 5 Sudoeste 13 Sudoeste 0 -- -- 65
2020-10-25 12:00:00 10.9 2 Noroeste 5 Oeste 0 -- -- 81
2020-10-25 11:00:00 7.7 3 Norte 14 Norte 0 -- -- 91
2020-10-25 10:00:00 6.1 3 Norte 9 Noroeste 0 -- -- 97
2020-10-25 09:00:00 4.6 0 Calma 5 Oeste 0 -- -- 100
2020-10-25 08:00:00 3.7 0 Calma 5 Noroeste 0 -- -- 100
2020-10-25 07:00:00 3.7 2 Sur 4 Sur 0 -- -- 99
2020-10-25 06:00:00 3.7 0 Calma 8 Norte 0 -- -- 99
2020-10-25 05:00:00 3.8 2 Sur 5 Sudeste 0 -- -- 99
2020-10-25 04:00:00 4.3 2 Sur 8 Noroeste 0 -- -- 98
2020-10-25 03:00:00 4.4 2 Sur 5 Norte 0 -- -- 98
2020-10-25 02:00:00 4.8 2 Sur 4 Sur 0 -- -- 98
2020-10-25 01:00:00 5.6 0 Calma 4 Sudeste 0 -- -- 98
2020-10-25 00:00:00 5.8 0 Calma 4 Este 0 -- -- 97
2020-10-24 23:00:00 6.1 0 Calma 3 Sudeste 0 -- -- 97
2020-10-24 22:00:00 6.7 0 Calma 3 Sudeste 0 -- -- 95
2020-10-24 21:00:00 7.7 0 Calma 3 Este 0 -- -- 94
2020-10-24 20:00:00 8.8 0 Calma 4 Norte 0 -- -- 91
2020-10-24 19:00:00 11.1 3 Sudeste 9 Sur 0 -- -- 84
2020-10-24 18:00:00 15.3 3 Sudoeste 16 Sudoeste 0 -- -- 63
2020-10-24 17:00:00 16.5 7 Sudoeste 24 Sudoeste 0 -- -- 57
2020-10-24 16:00:00 16.7 9 Sudoeste 19 Sudoeste 0 -- -- 58
2020-10-24 15:00:00 15 3 Norte 7 Norte 0 -- -- 68
2020-10-24 14:00:00 13.3 3 Norte 6 Norte 0 -- -- 76
2020-10-24 13:00:00 10.2 0 Calma 5 Norte 0 -- -- 84
2020-10-24 12:00:00 6.4 3 Nordeste 5 Nordeste 0 -- -- 100
2020-10-24 11:00:00 4.4 2 Nordeste 6 Noroeste 0 -- -- 100
2020-10-24 10:00:00 3.4 0 Calma 5 Oeste 0 -- -- 100
2020-10-24 09:00:00 3.6 0 Calma 4 Oeste 0 -- -- 100
2020-10-24 08:00:00 3.8 0 Calma 4 Noroeste 0 -- -- 100
2020-10-24 07:00:00 4.2 0 Calma 7 Norte 0 -- -- 100
2020-10-24 06:00:00 4.6 0 Calma 3 Sudoeste 0 -- -- 100
2020-10-24 05:00:00 4.9 0 Calma 4 Norte 0 -- -- 100
2020-10-24 04:00:00 4.9 0 Calma 3 Sur 0 -- -- 100
2020-10-24 03:00:00 5.1 0 Calma 10 Norte 0 -- -- 100
2020-10-24 02:00:00 5.4 0 Calma 3 Sudoeste 0 -- -- 100
2020-10-24 01:00:00 5.6 0 Calma 4 Sudeste 0 -- -- 99
2020-10-24 00:00:00 5.8 0 Calma 3 Sur 0 -- -- 99
2020-10-23 23:00:00 6.2 0 Calma 4 Sur 0 -- -- 99
2020-10-23 22:00:00 6.9 0 Calma 5 Sudoeste 0 -- -- 98
2020-10-23 21:00:00 7.5 0 Calma 4 Norte 0 -- -- 97
2020-10-23 20:00:00 8.4 0 Calma 4 Sudeste 0 -- -- 95
2020-10-23 19:00:00 10 0 Calma 4 Sudeste 0 -- -- 93
2020-10-23 18:00:00 12.5 4 Oeste 9 Oeste 0 -- -- 80
2020-10-23 17:00:00 12.6 2 Sudoeste 5 Sudoeste 0 -- -- 86
2020-10-23 16:00:00 10.5 3 Norte 21 Sur 2.6 -- -- 92
2020-10-23 15:00:00 14.3 5 Sudoeste 18 Noroeste 0 -- -- 73
2020-10-23 14:00:00 14.3 7 Sudoeste 23 Sudoeste 0 -- -- 77
2020-10-23 13:00:00 13.4 4 Sudoeste 13 Sudoeste 0 -- -- 85
2020-10-23 12:00:00 12.8 3 Sur 13 Sudeste 0 -- -- 90
2020-10-23 11:00:00 11.9 3 Norte 7 Norte 0 -- -- 100
2020-10-23 10:00:00 11.1 0 Calma 5 Oeste 0 -- -- 100
2020-10-23 09:00:00 10.2 0 Calma 3 Norte 0 -- -- 100
2020-10-23 08:00:00 10.3 0 Calma 3 Sudeste 0 -- -- 99
2020-10-23 07:00:00 11.1 0 Calma 3 Nordeste 0 -- -- 100
2020-10-23 06:00:00 11.3 0 Calma 3 Norte 0.2 -- -- 100
2020-10-23 05:00:00 11.5 0 Calma 4 Norte 0 -- -- 100
2020-10-23 04:00:00 11.6 0 Calma 5 Nordeste 0.2 -- -- 100
2020-10-23 03:00:00 11.6 0 Calma 4 Norte 0.6 -- -- 100
2020-10-23 02:00:00 11.6 0 Calma 2 Sudeste 1.8 -- -- 100
2020-10-23 01:00:00 11.7 0 Calma 5 Sudoeste 1.2 -- -- 100
2020-10-23 00:00:00 11.7 0 Calma 4 Sur 0.6 -- -- 100
2020-10-22 23:00:00 11.8 0 Calma 3 Sudoeste 0.6 -- -- 100
2020-10-22 22:00:00 11.9 0 Calma 3 Sur 2.4 -- -- 99
2020-10-22 21:00:00 12 0 Calma 4 Sur 1.2 -- -- 98
2020-10-22 20:00:00 12.3 0 Calma 3 Sur 1.4 -- -- 98
2020-10-22 19:00:00 12.9 0 Calma 5 Este 1 -- -- 95
2020-10-22 18:00:00 14 0 Calma 5 Sudoeste 0.6 -- -- 98
2020-10-22 17:00:00 14.6 0 Calma 3 Norte 0.8 -- -- 97
2020-10-22 16:00:00 14.9 0 Calma 3 Norte 0.6 -- -- 92
2020-10-22 15:00:00 14.9 0 Calma 3 Norte 0 -- -- 96
2020-10-22 14:00:00 14.4 0 Calma 4 Sur 0 -- -- 96
2020-10-22 13:00:00 13.7 2 Norte 5 Norte 0 -- -- 98
2020-10-22 12:00:00 13 0 Calma 4 Sudoeste 1 -- -- 100
2020-10-22 11:00:00 12.1 0 Calma 3 Norte 1.6 -- -- 100
2020-10-22 10:00:00 11.8 0 Calma 6 Sudoeste 1.2 -- -- 100
2020-10-22 09:00:00 11.6 0 Calma 3 Norte 1.4 -- -- 99
2020-10-22 08:00:00 11.7 0 Calma 5 Sur 1.2 -- -- 99
2020-10-22 07:00:00 11.9 0 Calma 4 Sur 0.6 -- -- 99
2020-10-22 06:00:00 12 0 Calma 5 Sudoeste 0 -- -- 99
2020-10-22 05:00:00 12 0 Calma 4 Sudeste 3.2 -- -- 99
2020-10-22 04:00:00 11.9 3 Este 7 Sudoeste 0.6 -- -- 95
2020-10-22 03:00:00 12.1 0 Calma 5 Sudoeste 0 -- -- 93
2020-10-22 02:00:00 12.2 0 Calma 4 Norte 0 -- -- 91
2020-10-22 01:00:00 12.4 0 Calma 7 Sur 0 -- -- 89
2020-10-22 00:00:00 12.3 2 Nordeste 6 Sudeste 0 -- -- 89
2020-10-21 23:00:00 12.4 2 Este 5 Sudeste 0 -- -- 89
2020-10-21 22:00:00 12.6 2 Nordeste 5 Sudeste 0 -- -- 88
2020-10-21 21:00:00 13 0 Calma 4 Este 0 -- -- 85
2020-10-21 20:00:00 14.1 0 Calma 5 Sudeste 0 -- -- 81
2020-10-21 19:00:00 17.7 3 Sudoeste 13 Sudoeste 0 -- -- 66
2020-10-21 18:00:00 18.1 4 Sur 15 Oeste 0 -- -- 66
2020-10-21 17:00:00 18.1 2 Oeste 5 Sudeste 0 -- -- 76
2020-10-21 16:00:00 18.4 0 Calma 10 Sudoeste 0 -- -- 76
2020-10-21 15:00:00 19.2 3 Sudoeste 9 Sudoeste 0 -- -- 66
2020-10-21 14:00:00 17 0 Calma 4 Norte 0.2 -- -- 89
2020-10-21 13:00:00 14.4 0 Calma 5 Norte 0 -- -- 95
2020-10-21 12:00:00 13.1 0 Calma 4 Noroeste 0 -- -- 97
2020-10-21 11:00:00 12.3 0 Calma 5 Norte 0 -- -- 99
2020-10-21 10:00:00 11.4 0 Calma 5 Noroeste 0 -- -- 99
2020-10-21 09:00:00 11.2 0 Calma 5 Sudeste 0 -- -- 98
2020-10-21 08:00:00 11.3 0 Calma 4 Oeste 1 -- -- 97
2020-10-21 07:00:00 11.7 2 Sudeste 6 Sur 0.8 -- -- 94
2020-10-21 06:00:00 14.5 4 Nordeste 27 Oeste 0.2 -- -- 74
2020-10-21 05:00:00 12.7 8 Sudoeste 18 Oeste 0 -- -- 74
2020-10-21 04:00:00 10.1 3 Este 11 Sur 0 -- -- 94
2020-10-21 03:00:00 9.8 3 Sudeste 6 Norte 0 -- -- 94
2020-10-21 02:00:00 9.9 2 Este 5 Norte 0 -- -- 93
2020-10-21 01:00:00 9.9 0 Calma 4 Noroeste 0 -- -- 95
2020-10-21 00:00:00 10.1 0 Calma 5 Sudeste 0 -- -- 95
2020-10-20 23:00:00 10.3 0 Calma 5 Nordeste 0 -- -- 95
2020-10-20 22:00:00 10.6 2 Este 5 Sur 0 -- -- 94
2020-10-20 21:00:00 10.9 2 Este 4 Sudoeste 0 -- -- 94
2020-10-20 20:00:00 11.5 2 Sudeste 7 Sur 0 -- -- 94
2020-10-20 19:00:00 12.4 0 Calma 4 Norte 0 -- -- 93
2020-10-20 18:00:00 13 0 Calma 4 Sudoeste 0 -- -- 91
2020-10-20 17:00:00 13.9 0 Calma 15 Oeste 0.4 -- -- 89
2020-10-20 16:00:00 14.9 5 Sudoeste 14 Sudoeste 0 -- -- 78
2020-10-20 15:00:00 14.7 5 Sudoeste 15 Sudoeste 0 -- -- 78
2020-10-20 14:00:00 13.9 0 Calma 4 Sur 0 -- -- 82
2020-10-20 13:00:00 12.7 3 Sudoeste 8 Oeste 0 -- -- 80
2020-10-20 12:00:00 11.3 5 Sudoeste 11 Sur 0 -- -- 82
2020-10-20 11:00:00 10 0 Calma 5 Sudoeste 0 -- -- 83
2020-10-20 10:00:00 8.4 0 Calma 4 Noroeste 0 -- -- 89
2020-10-20 09:00:00 7.7 0 Calma 4 Sur 0 -- -- 89
2020-10-20 08:00:00 7.5 0 Calma 5 Sudoeste 0 -- -- 88
2020-10-20 07:00:00 7.4 2 Sur 5 Sudoeste 0 -- -- 87
2020-10-20 06:00:00 7.2 0 Calma 8 Noroeste 0 -- -- 87
2020-10-20 05:00:00 6.7 0 Calma 5 Sudoeste 0 -- -- 88
2020-10-20 04:00:00 6.3 2 Nordeste 5 Sudoeste 0 -- -- 88
2020-10-20 03:00:00 6.3 0 Calma 4 Sudeste 0 -- -- 87
2020-10-20 02:00:00 6.7 0 Calma 3 Sur 0 -- -- 85
2020-10-20 01:00:00 6.8 0 Calma 4 Sudeste 0 -- -- 84
2020-10-20 00:00:00 6.3 0 Calma 4 Sudeste 0 -- -- 86
2020-10-19 23:00:00 6.7 0 Calma 3 Norte 0 -- -- 83
2020-10-19 22:00:00 7.6 0 Calma 4 Sudeste 0 -- -- 81
2020-10-19 21:00:00 8.8 0 Calma 4 Este 0 -- -- 77
2020-10-19 20:00:00 10.3 0 Calma 4 Sudeste 0 -- -- 73
2020-10-19 19:00:00 13.9 2 Sur 16 Sudoeste 0 -- -- 61
2020-10-19 18:00:00 17.9 10 Sudoeste 22 Sudoeste 0 -- -- 47
2020-10-19 17:00:00 18.3 9 Sudoeste 21 Sudoeste 0 -- -- 45
2020-10-19 16:00:00 19.9 12 Sudoeste 21 Sudoeste 0 -- -- 39
2020-10-19 15:00:00 19.1 2 Sudeste 7 Sur 0 -- -- 44
2020-10-19 14:00:00 17.3 2 Noroeste 12 Sudoeste 0 -- -- 51
2020-10-19 13:00:00 13.1 0 Calma 5 Norte 0 -- -- 63
2020-10-19 12:00:00 8.2 2 Nordeste 10 Norte 0 -- -- 71
2020-10-19 11:00:00 5.6 3 Norte 9 Norte 0 -- -- 83
2020-10-19 10:00:00 3.2 2 Sudoeste 9 Norte 0 -- -- 93
2020-10-19 09:00:00 2.5 2 Sudeste 13 Norte 0 -- -- 94
2020-10-19 08:00:00 2.2 0 Calma 9 Norte 0 -- -- 94
2020-10-19 07:00:00 2.5 0 Calma 7 Norte 0 -- -- 94
2020-10-19 06:00:00 2.8 0 Calma 10 Norte 0 -- -- 91
2020-10-19 05:00:00 3 0 Calma 6 Sur 0 -- -- 93
2020-10-19 04:00:00 3.4 0 Calma 6 Noroeste 0 -- -- 91
2020-10-19 03:00:00 3.7 0 Calma 4 Norte 0 -- -- 89
2020-10-19 02:00:00 4.2 0 Calma 4 Nordeste 0 -- -- 88
2020-10-19 01:00:00 5.1 0 Calma 3 Sudoeste 0 -- -- 87
2020-10-19 00:00:00 5.3 0 Calma 3 Nordeste 0 -- -- 86
2020-10-18 23:00:00 5.9 0 Calma 4 Sur 0 -- -- 84
2020-10-18 22:00:00 6.4 2 Sur 3 Sur 0 -- -- 83
2020-10-18 21:00:00 7.4 0 Calma 2 Sudoeste 0 -- -- 79
2020-10-18 20:00:00 8.9 0 Calma 3 Sudeste 0 -- -- 74
2020-10-18 19:00:00 11.5 0 Calma 9 Oeste 0 -- -- 66
2020-10-18 18:00:00 16.7 6 Sudoeste 24 Sudoeste 0 -- -- 46
2020-10-18 17:00:00 18.2 12 Sudoeste 26 Sudoeste 0 -- -- 41
2020-10-18 16:00:00 18.6 10 Sudoeste 28 Sudoeste 0 -- -- 40
2020-10-18 15:00:00 18 9 Sudoeste 18 Sudoeste 0 -- -- 42
2020-10-18 14:00:00 16.2 3 Sudeste 10 Sudoeste 0 -- -- 50
2020-10-18 13:00:00 11.9 0 Calma 6 Sudoeste 0 -- -- 55
2020-10-18 12:00:00 7.9 0 Calma 6 Norte 0 -- -- 73
2020-10-18 11:00:00 4.2 3 Nordeste 8 Nordeste 0 -- -- 84
2020-10-18 10:00:00 1.7 0 Calma 8 Norte 0 -- -- 93
2020-10-18 09:00:00 1.5 0 Calma 9 Norte 0 -- -- 93
2020-10-18 08:00:00 1.6 0 Calma 10 Nordeste 0 -- -- 92
2020-10-18 07:00:00 1.7 0 Calma 4 Este 0 -- -- 92
2020-10-18 06:00:00 2 0 Calma 4 Nordeste 0 -- -- 93
2020-10-18 05:00:00 2.4 0 Calma 7 Norte 0 -- -- 92
2020-10-18 04:00:00 2.9 0 Calma 4 Nordeste 0 -- -- 89
2020-10-18 03:00:00 3.3 0 Calma 4 Norte 0 -- -- 87
2020-10-18 02:00:00 3.8 0 Calma 3 Sur 0 -- -- 88
2020-10-18 01:00:00 4.2 0 Calma 3 Sur 0 -- -- 86
2020-10-18 00:00:00 4.6 0 Calma 3 Sur 0 -- -- 86
2020-10-17 23:00:00 5.2 0 Calma 4 Este 0 -- -- 84
2020-10-17 22:00:00 6.1 0 Calma 3 Sudeste 0 -- -- 81
2020-10-17 21:00:00 7.3 0 Calma 3 Sudeste 0 -- -- 77
2020-10-17 20:00:00 8.6 0 Calma 5 Sur 0 -- -- 72
2020-10-17 19:00:00 12.1 2 Sudeste 20 Sudoeste 0 -- -- 59
2020-10-17 18:00:00 15.1 11 Sudoeste 22 Sudoeste 0 -- -- 47
2020-10-17 17:00:00 16.2 10 Sudoeste 26 Sudoeste 0 -- -- 43
2020-10-17 16:00:00 15.9 12 Sudoeste 23 Sudoeste 0 -- -- 41
2020-10-17 15:00:00 15.8 8 Sudoeste 23 Sudoeste 0 -- -- 40
2020-10-17 14:00:00 14.3 6 Sudoeste 15 Sudoeste 0 -- -- 44
2020-10-17 13:00:00 11.3 3 Norte 10 Sur 0 -- -- 57
2020-10-17 12:00:00 5.5 0 Calma 6 Norte 0 -- -- 71
2020-10-17 11:00:00 2.5 2 Este 6 Norte 0 -- -- 83
2020-10-17 10:00:00 0.1 0 Calma 7 Sudoeste 0 -- -- 92
2020-10-17 09:00:00 -0.5 0 Calma 9 Norte 0 -- -- 91
2020-10-17 08:00:00 -0.4 0 Calma 9 Nordeste 0 -- -- 89
2020-10-17 07:00:00 0 0 Calma 3 Sudeste 0 -- -- 89
2020-10-17 06:00:00 0.3 0 Calma 4 Sudoeste 0 -- -- 88
2020-10-17 05:00:00 0.4 0 Calma 4 Sudoeste 0 -- -- 87
2020-10-17 04:00:00 0.8 0 Calma 5 Sudoeste 0 -- -- 87
2020-10-17 03:00:00 1.2 0 Calma 4 Sudoeste 0 -- -- 84
2020-10-17 02:00:00 1.6 0 Calma 3 Nordeste 0 -- -- 82
2020-10-17 01:00:00 1.7 0 Calma 3 Sudoeste 0 -- -- 82
2020-10-17 00:00:00 2.2 0 Calma 4 Sudeste 0 -- -- 81
2020-10-16 23:00:00 2.5 0 Calma 3 Este 0 -- -- 79
2020-10-16 22:00:00 3.5 0 Calma 3 Este 0 -- -- 76
2020-10-16 21:00:00 4.6 0 Calma 3 Sudeste 0 -- -- 72
2020-10-16 20:00:00 6.2 0 Calma 5 Sur 0 -- -- 65
2020-10-16 19:00:00 10 2 Norte 13 Sudoeste 0 -- -- 53
2020-10-16 18:00:00 13.8 7 Sudoeste 19 Oeste 0 -- -- 38
2020-10-16 17:00:00 15.1 9 Sudoeste 24 Sudoeste 0 -- -- 36
2020-10-16 16:00:00 15.3 9 Sudoeste 24 Sudoeste 0 -- -- 35
2020-10-16 15:00:00 14.6 8 Sudoeste 27 Sudoeste 0 -- -- 35
2020-10-16 14:00:00 13.4 12 Sudoeste 21 Sudoeste 0 -- -- 36
2020-10-16 13:00:00 11.3 3 Norte 9 Sudeste 0 -- -- 44
2020-10-16 12:00:00 5.2 2 Noroeste 6 Norte 0 -- -- 58
2020-10-16 11:00:00 1 0 Calma 6 Norte 0 -- -- 74
2020-10-16 10:00:00 -1.3 0 Calma 4 Sur 0 -- -- 86
2020-10-16 09:00:00 -1.5 2 Sur 5 Sudeste 0 -- -- 83
2020-10-16 08:00:00 -1.3 2 Sudoeste 8 Oeste 0 -- -- 82
2020-10-16 07:00:00 -0.9 2 Sudeste 6 Sudeste 0 -- -- 83
2020-10-16 06:00:00 -0.7 2 Nordeste 6 Nordeste 0 -- -- 79
2020-10-16 05:00:00 -0.1 2 Sudeste 6 Sudeste 0 -- -- 74
2020-10-16 04:00:00 0.6 3 Sudeste 7 Oeste 0 -- -- 74
2020-10-16 03:00:00 2 2 Sudeste 8 Norte 0 -- -- 65
2020-10-16 02:00:00 3 0 Calma 5 Oeste 0 -- -- 59
2020-10-16 01:00:00 3.9 0 Calma 4 Este 0 -- -- 56
2020-10-16 00:00:00 4.1 2 Este 5 Sur 0 -- -- 56
2020-10-15 23:00:00 4.6 0 Calma 6 Sur 0 -- -- 56
2020-10-15 22:00:00 5.3 5 Nordeste 16 Sur 0 -- -- 54
2020-10-15 21:00:00 7.2 3 Norte 19 Nordeste 0 -- -- 44
2020-10-15 20:00:00 8.1 5 Nordeste 18 Norte 0 -- -- 47
2020-10-15 19:00:00 9.5 6 Noroeste 25 Noroeste 0 -- -- 43
2020-10-15 18:00:00 11.5 5 Noroeste 24 Sudoeste 0 -- -- 38
2020-10-15 17:00:00 13.2 5 Sudoeste 30 Sur 0 -- -- 34
2020-10-15 16:00:00 13 10 Sudoeste 27 Sudoeste 0 -- -- 32
2020-10-15 15:00:00 12.6 10 Noroeste 28 Norte 0 -- -- 34
2020-10-15 14:00:00 12.6 9 Noroeste 31 Sudoeste 0 -- -- 31
2020-10-15 13:00:00 11.8 9 Noroeste 21 Norte 0 -- -- 37
2020-10-15 12:00:00 7.8 3 Norte 7 Norte 0 -- -- 67
2020-10-15 11:00:00 6.2 4 Norte 11 Norte 0 -- -- 75
2020-10-15 10:00:00 3.3 0 Calma 5 Sudeste 0 -- -- 84
2020-10-15 09:00:00 1.7 2 Este 7 Sur 0 -- -- 90
2020-10-15 08:00:00 1.8 3 Este 6 Sudeste 0 -- -- 88
2020-10-15 07:00:00 2.4 3 Sudoeste 8 Norte 0 -- -- 85
2020-10-15 06:00:00 2.9 3 Sudoeste 10 Oeste 0 -- -- 80
2020-10-15 05:00:00 3 2 Este 11 Nordeste 0 -- -- 80
2020-10-15 04:00:00 3.5 3 Sur 11 Norte 0 -- -- 77
2020-10-15 03:00:00 3.8 3 Nordeste 12 Norte 0 -- -- 77
2020-10-15 02:00:00 3.8 4 Nordeste 14 Norte 0 -- -- 76
2020-10-15 01:00:00 4.2 2 Este 10 Norte 0 -- -- 75
2020-10-15 00:00:00 4.8 4 Nordeste 12 Norte 0 -- -- 71
2020-10-14 23:00:00 4.8 4 Nordeste 10 Norte 0 -- -- 72
2020-10-14 22:00:00 4.8 3 Norte 14 Norte 0 -- -- 78
2020-10-14 21:00:00 6.2 2 Sudoeste 28 Noroeste 0 -- -- 69
2020-10-14 20:00:00 8.7 11 Noroeste 27 Norte 0 -- -- 48
2020-10-14 19:00:00 9.7 5 Oeste 15 Oeste 0 -- -- 43
2020-10-14 18:00:00 12.3 6 Norte 26 Nordeste 0 -- -- 38
2020-10-14 17:00:00 14 4 Oeste 20 Sudoeste 0 -- -- 32
2020-10-14 16:00:00 13 5 Noroeste 28 Sur 0 -- -- 36
2020-10-14 15:00:00 11.8 6 Sudoeste 23 Sudoeste 0 -- -- 48
2020-10-14 14:00:00 12.8 9 Sudoeste 24 Sudoeste 0 -- -- 50
2020-10-14 13:00:00 12.4 8 Sur 17 Sudoeste 0 -- -- 56
2020-10-14 12:00:00 7.3 2 Norte 9 Sur 0 -- -- 74
2020-10-14 11:00:00 3.1 0 Calma 5 Norte 0 -- -- 86
2020-10-14 10:00:00 1 0 Calma 5 Sur 0 -- -- 91
2020-10-14 09:00:00 0.7 0 Calma 4 Sudeste 0 -- -- 91
2020-10-14 08:00:00 0.7 2 Sur 6 Sudoeste 0 -- -- 91
2020-10-14 07:00:00 1.1 0 Calma 4 Este 0 -- -- 90
2020-10-14 06:00:00 1.3 2 Este 5 Sudeste 0 -- -- 89
2020-10-14 05:00:00 1.6 2 Este 5 Norte 0 -- -- 88
2020-10-14 04:00:00 2.3 0 Calma 4 Sudeste 0 -- -- 85
2020-10-14 03:00:00 3.3 0 Calma 4 Norte 0 -- -- 81
2020-10-14 02:00:00 4.3 0 Calma 3 Sur 0 -- -- 77
2020-10-14 01:00:00 5.1 0 Calma 4 Sur 0 -- -- 72
2020-10-14 00:00:00 6.6 2 Sudeste 6 Sudeste 0 -- -- 71
2020-10-13 23:00:00 6.9 2 Sudeste 5 Sudeste 0 -- -- 68
2020-10-13 22:00:00 7.7 0 Calma 6 Nordeste 0 -- -- 68
2020-10-13 21:00:00 8.8 3 Nordeste 8 Sudeste 0 -- -- 67
2020-10-13 20:00:00 11.2 0 Calma 21 Sudoeste 0 -- -- 59
2020-10-13 19:00:00 14.1 6 Sur 17 Sudoeste 0 -- -- 51
2020-10-13 18:00:00 17.1 5 Sur 19 Sur 0 -- -- 47
2020-10-13 17:00:00 18.9 6 Sudoeste 24 Sudoeste 0 -- -- 42
2020-10-13 16:00:00 19.2 9 Sudoeste 22 Sudoeste 0 -- -- 43
2020-10-13 15:00:00 18.2 11 Sudoeste 25 Sudoeste 0 -- -- 43
2020-10-13 14:00:00 17.4 10 Sudoeste 20 Sudoeste 0 -- -- 45
2020-10-13 13:00:00 14 5 Sur 14 Sudoeste 0 -- -- 57
2020-10-13 12:00:00 8.4 3 Oeste 6 Sudoeste 0 -- -- 82
2020-10-13 11:00:00 -- -- -- -- -- -- -- -- --
2020-10-13 10:00:00 -- -- -- -- -- -- -- -- --
2020-10-13 09:00:00 -- -- -- -- -- -- -- -- --
2020-10-13 08:00:00 -- -- -- -- -- -- -- -- --
2020-10-13 07:00:00 -- -- -- -- -- -- -- -- --
2020-10-13 06:00:00 -- -- -- -- -- -- -- -- --
2020-10-13 05:00:00 -- -- -- -- -- -- -- -- --
2020-10-13 04:00:00 -- -- -- -- -- -- -- -- --
2020-10-13 03:00:00 -- -- -- -- -- -- -- -- --
2020-10-13 02:00:00 -- -- -- -- -- -- -- -- --
2020-10-13 01:00:00 -- -- -- -- -- -- -- -- --
2020-10-13 00:00:00 -- -- -- -- -- -- -- -- --
2020-10-12 23:00:00 -- -- -- -- -- -- -- -- --
2020-10-12 22:00:00 -- -- -- -- -- -- -- -- --
2020-10-12 21:00:00 -- -- -- -- -- -- -- -- --
2020-10-12 20:00:00 -- -- -- -- -- -- -- -- --
2020-10-12 19:00:00 -- -- -- -- -- -- -- -- --
2020-10-12 18:00:00 -- -- -- -- -- -- -- -- --
2020-10-12 17:00:00 -- -- -- -- -- -- -- -- --
2020-10-12 16:00:00 -- -- -- -- -- -- -- -- --
2020-10-12 15:00:00 -- -- -- -- -- -- -- -- --
2020-10-12 14:00:00 -- -- -- -- -- -- -- -- --
2020-10-12 13:00:00 -- -- -- -- -- -- -- -- --
2020-10-12 12:00:00 -- -- -- -- -- -- -- -- --
2020-10-12 11:00:00 -- -- -- -- -- -- -- -- --
2020-10-12 10:00:00 -- -- -- -- -- -- -- -- --
2020-10-12 09:00:00 -- -- -- -- -- -- -- -- --
2020-10-12 08:00:00 -- -- -- -- -- -- -- -- --
2020-10-12 07:00:00 -- -- -- -- -- -- -- -- --
2020-10-12 06:00:00 -- -- -- -- -- -- -- -- --
2020-10-12 05:00:00 -- -- -- -- -- -- -- -- --
2020-10-12 04:00:00 -- -- -- -- -- -- -- -- --
2020-10-12 03:00:00 7.4 6 Nordeste 20 Norte 0 -- -- 67
2020-10-12 02:00:00 6.7 4 Este 19 Norte 0 -- -- 73
2020-10-12 01:00:00 6.8 5 Nordeste 14 Noroeste 0 -- -- 74
2020-10-12 00:00:00 7.2 3 Sur 13 Este 0 -- -- 74
2020-10-11 23:00:00 7.6 4 Nordeste 12 Norte 0 -- -- 70
2020-10-11 22:00:00 7.8 3 Nordeste 24 Norte 0 -- -- 71
2020-10-11 21:00:00 -- -- -- -- -- -- -- -- --
2020-10-11 20:00:00 -- -- -- -- -- -- -- -- --
2020-10-11 19:00:00 11.5 8 Norte 39 Noroeste 0 -- -- 46
2020-10-11 18:00:00 13.2 9 Norte 33 Sudoeste 0 -- -- 39
2020-10-11 17:00:00 13.6 13 Sudoeste 35 Sudoeste 0 -- -- 37
2020-10-11 16:00:00 15 12 Sur 39 Sudoeste 0 -- -- 36
2020-10-11 15:00:00 15.1 18 Sudoeste 47 Sudoeste 0 -- -- 34
2020-10-11 14:00:00 14.9 14 Sudoeste 47 Sudoeste 0 -- -- 35
2020-10-11 13:00:00 15 8 Sudoeste 35 Sudoeste 0 -- -- 36
2020-10-11 12:00:00 13.2 9 Oeste 30 Oeste 0 -- -- 39
2020-10-11 11:00:00 10.9 3 Nordeste 17 Sur 0 -- -- 52
2020-10-11 10:00:00 7.6 4 Nordeste 17 Sudoeste 0 -- -- 61
2020-10-11 09:00:00 7.5 0 Calma 13 Norte 0 -- -- 59
2020-10-11 08:00:00 8 3 Sudeste 14 Norte 0 -- -- 47
2020-10-11 07:00:00 8.6 3 Nordeste 27 Oeste 0 -- -- 46
2020-10-11 06:00:00 10.7 8 Noroeste 34 Oeste 0 -- -- 39
2020-10-11 05:00:00 10.8 9 Norte 34 Nordeste 0 -- -- 43
2020-10-11 04:00:00 10.5 9 Noroeste 27 Oeste 0 -- -- 46
2020-10-11 03:00:00 11.8 10 Oeste 26 Oeste 0 -- -- 44
2020-10-11 02:00:00 11 5 Sudeste 29 Sudeste 0 -- -- 52
2020-10-11 01:00:00 10.9 6 Norte 16 Noroeste 0 -- -- 50
2020-10-11 00:00:00 11.3 7 Norte 22 Oeste 0 -- -- 51
2020-10-10 23:00:00 10.7 4 Sudeste 13 Noroeste 0 -- -- 54
2020-10-10 22:00:00 11.2 3 Este 12 Sur 0 -- -- 57
2020-10-10 21:00:00 12.9 5 Sur 12 Sudoeste 0 -- -- 56
2020-10-10 20:00:00 13.3 2 Sur 14 Sur 0 -- -- 62
2020-10-10 19:00:00 15.6 5 Sudoeste 20 Oeste 0 -- -- 55
2020-10-10 18:00:00 17.3 6 Sudoeste 21 Sur 0 -- -- 52
2020-10-10 17:00:00 18.1 6 Sur 19 Sudoeste 0 -- -- 55
2020-10-10 16:00:00 19.4 10 Sudoeste 21 Sudoeste 0 -- -- 60
2020-10-10 15:00:00 19.4 11 Sudoeste 20 Sudoeste 0 -- -- 62
2020-10-10 14:00:00 18.7 10 Sudoeste 18 Sudoeste 0 -- -- 63
2020-10-10 13:00:00 15.4 0 Calma 5 Sur 0 -- -- 83
2020-10-10 12:00:00 12 0 Calma 4 Sudeste 0 -- -- 96
2020-10-10 11:00:00 11 0 Calma 3 Sudeste 0 -- -- 95
2020-10-10 10:00:00 10.6 0 Calma 4 Sur 0 -- -- 96
2020-10-10 09:00:00 10.5 0 Calma 6 Noroeste 0 -- -- 96
2020-10-10 08:00:00 10.4 2 Este 4 Sur 0 -- -- 97
2020-10-10 07:00:00 11 0 Calma 5 Noroeste 0 -- -- 96
2020-10-10 06:00:00 11.3 2 Sur 5 Sur 0 -- -- 96
2020-10-10 05:00:00 11.8 0 Calma 8 Norte 0 -- -- 95
2020-10-10 04:00:00 12.2 0 Calma 3 Sur 0 -- -- 95
2020-10-10 03:00:00 12 2 Sudeste 4 Sur 0 -- -- 96
2020-10-10 02:00:00 11.7 0 Calma 4 Sudoeste 0 -- -- 95
2020-10-10 01:00:00 11.9 0 Calma 3 Sudeste 0 -- -- 96
2020-10-10 00:00:00 11.6 0 Calma 4 Sudeste 0 -- -- 94
2020-10-09 23:00:00 12.2 0 Calma 4 Sudeste 0 -- -- 93
2020-10-09 22:00:00 13.2 0 Calma 3 Sudeste 0 -- -- 90
2020-10-09 21:00:00 14.2 0 Calma 4 Sudeste 0 -- -- 87
2020-10-09 20:00:00 15.5 2 Sudeste 3 Este 0 -- -- 83
2020-10-09 19:00:00 17.1 0 Calma 4 Sudeste 0 -- -- 78
2020-10-09 18:00:00 21.7 2 Sudoeste 13 Sur 0 -- -- 59
2020-10-09 17:00:00 23.8 8 Sudoeste 18 Sudoeste 0 -- -- 51
2020-10-09 16:00:00 23.6 6 Sudoeste 21 Sudoeste 0 -- -- 48
2020-10-09 15:00:00 22.8 10 Sudoeste 24 Sudoeste 0 -- -- 55
2020-10-09 14:00:00 20.7 3 Norte 8 Sudeste 0 -- -- 64
2020-10-09 13:00:00 17.6 3 Sur 6 Sudeste 0 -- -- 73
2020-10-09 12:00:00 14.5 3 Norte 9 Norte 0 -- -- 82
2020-10-09 11:00:00 12.5 3 Norte 7 Norte 0 -- -- 89
2020-10-09 10:00:00 10.9 0 Calma 5 Norte 0 -- -- 96
2020-10-09 09:00:00 9.7 0 Calma 9 Norte 0 -- -- 97
2020-10-09 08:00:00 9.8 0 Calma 5 Nordeste 0 -- -- 96
2020-10-09 07:00:00 10.2 2 Nordeste 6 Oeste 0 -- -- 97
2020-10-09 06:00:00 10.3 0 Calma 3 Sur 0 -- -- 97
2020-10-09 05:00:00 10.4 0 Calma 4 Nordeste 0 -- -- 97
2020-10-09 04:00:00 10.5 0 Calma 3 Sudeste 0 -- -- 97
2020-10-09 03:00:00 10.6 0 Calma 5 Nordeste 0 -- -- 96
2020-10-09 02:00:00 10.6 0 Calma 5 Norte 0 -- -- 96
2020-10-09 01:00:00 11.1 0 Calma 3 Sur 0 -- -- 95
2020-10-09 00:00:00 11.8 2 Sur 4 Este 0 -- -- 94
2020-10-08 23:00:00 12.9 2 Sudeste 3 Este 0 -- -- 92
2020-10-08 22:00:00 13.3 0 Calma 4 Sur 0 -- -- 92
2020-10-08 21:00:00 14.1 2 Sudeste 4 Sur 0 -- -- 89
2020-10-08 20:00:00 15.1 0 Calma 4 Sur 0 -- -- 84
2020-10-08 19:00:00 18.5 0 Calma 12 Oeste 0 -- -- 73
2020-10-08 18:00:00 21.2 7 Sudoeste 21 Sudoeste 0 -- -- 60
2020-10-08 17:00:00 22.9 11 Sudoeste 22 Sudoeste 0 -- -- 53
2020-10-08 16:00:00 22.6 11 Sudoeste 24 Sudoeste 0 -- -- 55
2020-10-08 15:00:00 20.8 13 Sudoeste 27 Sudoeste 0 -- -- 61
2020-10-08 14:00:00 20.8 14 Sudoeste 27 Sudoeste 0 -- -- 61
2020-10-08 13:00:00 18.1 3 Norte 6 Norte 0 -- -- 70
2020-10-08 12:00:00 13.6 0 Calma 5 Nordeste 0 -- -- 81
2020-10-08 11:00:00 10.3 2 Norte 4 Norte 0 -- -- 94
2020-10-08 10:00:00 8.6 0 Calma 4 Sur 0 -- -- 97
2020-10-08 09:00:00 8.1 0 Calma 4 Sudoeste 0 -- -- 96
2020-10-08 08:00:00 8.3 0 Calma 10 Norte 0 -- -- 95
2020-10-08 07:00:00 8.5 0 Calma 12 Norte 0 -- -- 96
2020-10-08 06:00:00 8.9 0 Calma 4 Norte 0 -- -- 94
2020-10-08 05:00:00 9.2 0 Calma 4 Sudoeste 0 -- -- 94
2020-10-08 04:00:00 9.7 0 Calma 6 Norte 0 -- -- 92
2020-10-08 03:00:00 10.4 0 Calma 4 Nordeste 0 -- -- 90
2020-10-08 02:00:00 11.2 0 Calma 3 Sur 0 -- -- 89
2020-10-08 01:00:00 12 0 Calma 4 Sudeste 0 -- -- 87
2020-10-08 00:00:00 12.7 0 Calma 4 Nordeste 0 -- -- 85
2020-10-07 23:00:00 13.1 2 Sudeste 4 Este 0 -- -- 85
2020-10-07 22:00:00 14 2 Sur 6 Norte 0 -- -- 82
2020-10-07 21:00:00 14.6 3 Sur 6 Sur 0 -- -- 83
2020-10-07 20:00:00 16.9 0 Calma 17 Sur 0 -- -- 76
2020-10-07 19:00:00 19.4 6 Sudoeste 14 Sudeste 0 -- -- 71
2020-10-07 18:00:00 22.2 8 Sudoeste 20 Sudoeste 0 -- -- 57
2020-10-07 17:00:00 21.9 9 Sur 28 Sudoeste 0 -- -- 58
2020-10-07 16:00:00 23 14 Sudoeste 31 Sur 0 -- -- 53
2020-10-07 15:00:00 22.1 18 Sudoeste 32 Sudoeste 0 -- -- 57
2020-10-07 14:00:00 20.1 9 Sudoeste 27 Sur 0 -- -- 64
2020-10-07 13:00:00 19.4 9 Sur 18 Sudoeste 0 -- -- 65
2020-10-07 12:00:00 15.2 3 Sudoeste 7 Sur 0 -- -- 80
2020-10-07 11:00:00 12.4 0 Calma 3 Oeste 0 -- -- 91
2020-10-07 10:00:00 10.5 4 Sudoeste 7 Sudoeste 0 -- -- 99
2020-10-07 09:00:00 9.3 2 Nordeste 5 Noroeste 0 -- -- 99
2020-10-07 08:00:00 9.1 0 Calma 5 Sudeste 0 -- -- 98
2020-10-07 07:00:00 9.4 0 Calma 4 Noroeste 0 -- -- 98
2020-10-07 06:00:00 9.7 0 Calma 3 Sudoeste 0 -- -- 98
2020-10-07 05:00:00 9.6 0 Calma 4 Sur 0 -- -- 98
2020-10-07 04:00:00 9.3 0 Calma 5 Sudoeste 0 -- -- 99
2020-10-07 03:00:00 9.2 0 Calma 3 Norte 0 -- -- 98
2020-10-07 02:00:00 9.7 0 Calma 5 Sudeste 0 -- -- 97
2020-10-07 01:00:00 9.9 0 Calma 5 Sudeste 0 -- -- 96
2020-10-07 00:00:00 10.7 3 Sur 5 Sur 0 -- -- 96
2020-10-06 23:00:00 11.2 2 Sudeste 5 Sudeste 0 -- -- 94
2020-10-06 22:00:00 12.2 0 Calma 3 Sur 0 -- -- 91
2020-10-06 21:00:00 13.4 3 Sudeste 4 Norte 0 -- -- 89
2020-10-06 20:00:00 15.4 2 Sudeste 8 Noroeste 0 -- -- 82
2020-10-06 19:00:00 19 3 Sudoeste 13 Sudoeste 0 -- -- 67
2020-10-06 18:00:00 20.1 9 Sudoeste 23 Sudoeste 0 -- -- 61
2020-10-06 17:00:00 20.3 5 Sudoeste 23 Sudoeste 0 -- -- 59
2020-10-06 16:00:00 20.5 13 Sudoeste 22 Sudoeste 0 -- -- 56
2020-10-06 15:00:00 20.4 10 Sudoeste 25 Sudoeste 0 -- -- 54
2020-10-06 14:00:00 18.7 3 Noroeste 8 Norte 0 -- -- 57
2020-10-06 13:00:00 16.4 3 Norte 6 Sur 0 -- -- 58
2020-10-06 12:00:00 11.7 0 Calma 6 Sudoeste 0 -- -- 74
2020-10-06 11:00:00 8.4 0 Calma 7 Norte 0 -- -- 91
2020-10-06 10:00:00 5.1 0 Calma 4 Sur 0 -- -- 98
2020-10-06 09:00:00 4.3 0 Calma 5 Sur 0 -- -- 97
2020-10-06 08:00:00 4.2 0 Calma 5 Sur 0 -- -- 97
2020-10-06 07:00:00 4.4 0 Calma 4 Sudeste 0 -- -- 96
2020-10-06 06:00:00 4.5 0 Calma 4 Sur 0 -- -- 96
2020-10-06 05:00:00 4.9 0 Calma 6 Norte 0 -- -- 95
2020-10-06 04:00:00 5.2 0 Calma 4 Sudeste 0 -- -- 95
2020-10-06 03:00:00 5.1 0 Calma 4 Sur 0 -- -- 95
2020-10-06 02:00:00 5.3 2 Sur 4 Norte 0 -- -- 95
2020-10-06 01:00:00 5.6 0 Calma 3 Sudeste 0 -- -- 94
2020-10-06 00:00:00 5.9 0 Calma 3 Sudeste 0 -- -- 93
2020-10-05 23:00:00 6.4 0 Calma 3 Norte 0 -- -- 92
2020-10-05 22:00:00 6.9 0 Calma 4 Sudeste 0 -- -- 89
2020-10-05 21:00:00 8.2 0 Calma 3 Norte 0 -- -- 86
2020-10-05 20:00:00 9.9 0 Calma 5 Sudeste 0 -- -- 80
2020-10-05 19:00:00 13.5 3 Sudoeste 15 Sudoeste 0 -- -- 64
2020-10-05 18:00:00 16 7 Sur 21 Sudeste 0 -- -- 53
2020-10-05 17:00:00 17 10 Sudoeste 23 Sudoeste 0 -- -- 49
2020-10-05 16:00:00 17.3 8 Sudoeste 23 Sudoeste 0 -- -- 49
2020-10-05 15:00:00 16.6 8 Sudoeste 19 Sudoeste 0 -- -- 53
2020-10-05 14:00:00 15 8 Sudoeste 25 Sudoeste 0 -- -- 57
2020-10-05 13:00:00 13.3 5 Sudoeste 15 Sudoeste 0 -- -- 61
2020-10-05 12:00:00 7.9 2 Sudoeste 7 Este 0 -- -- 84
2020-10-05 11:00:00 4.9 0 Calma 5 Norte 0 -- -- 96
2020-10-05 10:00:00 3 0 Calma 5 Sudoeste 0 -- -- 100
2020-10-05 09:00:00 2.1 0 Calma 5 Sur 0 -- -- 99
2020-10-05 08:00:00 2.1 0 Calma 4 Sudoeste 0 -- -- 99
2020-10-05 07:00:00 2.2 0 Calma 4 Sur 0 -- -- 98
2020-10-05 06:00:00 2.6 2 Sudeste 5 Sudeste 0 -- -- 99
2020-10-05 05:00:00 3.1 0 Calma 4 Norte 0 -- -- 98
2020-10-05 04:00:00 3.5 2 Nordeste 6 Sur 0 -- -- 98
2020-10-05 03:00:00 3.6 0 Calma 5 Nordeste 0 -- -- 98
2020-10-05 02:00:00 3.5 0 Calma 4 Sudeste 0 -- -- 98
2020-10-05 01:00:00 3.8 3 Sudeste 9 Sur 0 -- -- 97
2020-10-05 00:00:00 4.3 0 Calma 5 Norte 0 -- -- 96
2020-10-04 23:00:00 5.1 3 Sudeste 4 Sudeste 0 -- -- 94
2020-10-04 22:00:00 6 2 Sudeste 4 Sur 0 -- -- 93
2020-10-04 21:00:00 7.1 2 Sudeste 5 Sudeste 0 -- -- 89
2020-10-04 20:00:00 8.9 2 Nordeste 9 Sudoeste 0 -- -- 81
2020-10-04 19:00:00 11 0 Calma 8 Oeste 0 -- -- 72
2020-10-04 18:00:00 12.1 5 Sudoeste 26 Sudoeste 0 -- -- 66
2020-10-04 17:00:00 13.4 8 Sudoeste 22 Sudoeste 0 -- -- 62
2020-10-04 16:00:00 13 6 Sur 21 Sudoeste 0 -- -- 65
2020-10-04 15:00:00 11.9 10 Sudoeste 22 Oeste 0 -- -- 70
2020-10-04 14:00:00 12 6 Oeste 15 Oeste 0.2 -- -- 73
2020-10-04 13:00:00 10.1 3 Sudoeste 9 Sudoeste 0 -- -- 85
2020-10-04 12:00:00 9.3 2 Oeste 5 Sudoeste 0.6 -- -- 94
2020-10-04 11:00:00 8.1 0 Calma 6 Sudoeste 0.6 -- -- 96
2020-10-04 10:00:00 7.1 0 Calma 5 Sur 0 -- -- 100
2020-10-04 09:00:00 6.1 2 Sur 4 Sudeste 0 -- -- 99
2020-10-04 08:00:00 6.5 0 Calma 5 Sur 0 -- -- 99
2020-10-04 07:00:00 6.5 2 Sur 7 Sudoeste 0.2 -- -- 99
2020-10-04 06:00:00 6.4 3 Sudeste 6 Sur 0 -- -- 99
2020-10-04 05:00:00 6.2 0 Calma 4 Sudeste 0 -- -- 99
2020-10-04 04:00:00 6.2 2 Sur 5 Sudoeste 0 -- -- 99
2020-10-04 03:00:00 6 0 Calma 4 Sudeste 0 -- -- 99
2020-10-04 02:00:00 5.8 0 Calma 7 Sur 0 -- -- 99
2020-10-04 01:00:00 5.5 0 Calma 5 Nordeste 0 -- -- 97
2020-10-04 00:00:00 6.3 0 Calma 5 Sudeste 0.2 -- -- 96
2020-10-03 23:00:00 7.3 2 Sudeste 6 Sudeste 0.2 -- -- 96
2020-10-03 22:00:00 7.5 0 Calma 5 Sudeste 0.2 -- -- 94
2020-10-03 21:00:00 7.9 2 Sudeste 10 Noroeste 0 -- -- 89
2020-10-03 20:00:00 8.3 3 Sudeste 5 Sudeste 0 -- -- 87
2020-10-03 19:00:00 9 4 Noroeste 15 Sudoeste 0 -- -- 79
2020-10-03 18:00:00 9.7 8 Sudoeste 25 Sudoeste 0 -- -- 71
2020-10-03 17:00:00 9.7 5 Sudoeste 19 Sudoeste 0 -- -- 76
2020-10-03 16:00:00 9.9 8 Sudoeste 17 Oeste 0 -- -- 72
2020-10-03 15:00:00 8.7 7 Sudoeste 22 Sudoeste 0 -- -- 76
2020-10-03 14:00:00 8 8 Sudoeste 19 Sudoeste 0.2 -- -- 84
2020-10-03 13:00:00 8.2 3 Sudoeste 22 Sudoeste 0.2 -- -- 84
2020-10-03 12:00:00 8.4 9 Sudoeste 24 Sudoeste 0 -- -- 75
2020-10-03 11:00:00 7.8 2 Noroeste 6 Sudoeste 0 -- -- 86
2020-10-03 10:00:00 6.3 0 Calma 5 Sudoeste 0 -- -- 89
2020-10-03 09:00:00 5 2 Norte 4 Norte 0 -- -- 97
2020-10-03 08:00:00 4.6 0 Calma 4 Sudeste 0 -- -- 97
2020-10-03 07:00:00 4.7 0 Calma 3 Sur 0 -- -- 96
2020-10-03 06:00:00 4.9 0 Calma 3 Nordeste 0 -- -- 95
2020-10-03 05:00:00 4.8 3 Este 4 Este 0 -- -- 96
2020-10-03 04:00:00 4.9 3 Nordeste 6 Nordeste 0 -- -- 96
2020-10-03 03:00:00 5.2 2 Este 11 Noroeste 0.2 -- -- 93
2020-10-03 02:00:00 4.9 3 Sudeste 7 Sudoeste 0 -- -- 100
2020-10-03 01:00:00 4.4 0 Calma 5 Sudoeste 0 -- -- 99
2020-10-03 00:00:00 3.9 0 Calma 5 Sur 0 -- -- 98
2020-10-02 23:00:00 4.2 0 Calma 4 Sudeste 0 -- -- 97
2020-10-02 22:00:00 4.9 0 Calma 4 Norte 0 -- -- 97
2020-10-02 21:00:00 5.5 2 Sudeste 5 Sur 0 -- -- 94
2020-10-02 20:00:00 7.1 3 Este 5 Sudeste 0 -- -- 92
2020-10-02 19:00:00 9.4 2 Sudoeste 23 Sudoeste 0 -- -- 82
2020-10-02 18:00:00 9.8 6 Sur 24 Oeste 0 -- -- 74
2020-10-02 17:00:00 10.7 9 Sudoeste 24 Sudoeste 0 -- -- 75
2020-10-02 16:00:00 9.3 5 Sur 31 Sudoeste 0 -- -- 82
2020-10-02 15:00:00 9.1 2 Norte 26 Sudoeste 0.4 -- -- 96
2020-10-02 14:00:00 9.5 9 Sur 28 Sur 2.4 -- -- 84
2020-10-02 13:00:00 11.1 4 Sudoeste 8 Sudoeste 2.6 -- -- 95
2020-10-02 12:00:00 11.2 3 Sur 10 Sur 3.6 -- -- 96
2020-10-02 11:00:00 11.2 3 Oeste 20 Sudoeste 5.4 -- -- 95
2020-10-02 10:00:00 10.6 0 Calma 5 Sudeste 7.8 -- -- 98
2020-10-02 09:00:00 10.6 2 Sur 13 Sur 7 -- -- 97
2020-10-02 08:00:00 10.7 2 Noroeste 8 Norte 7.2 -- -- 97
2020-10-02 07:00:00 10.9 3 Sudeste 21 Sudeste 5.6 -- -- 97
2020-10-02 06:00:00 11.1 4 Norte 12 Oeste 4 -- -- 96
2020-10-02 05:00:00 10.9 2 Este 5 Norte 3.2 -- -- 97
2020-10-02 04:00:00 11.2 3 Este 5 Sudoeste 1 -- -- 94
2020-10-02 03:00:00 11.3 0 Calma 4 Norte 0 -- -- 87
2020-10-02 02:00:00 11.3 0 Calma 4 Sudeste 0 -- -- 86
2020-10-02 01:00:00 11.2 0 Calma 4 Sur 0 -- -- 85
2020-10-02 00:00:00 10.9 0 Calma 4 Sudeste 0 -- -- 84
2020-10-01 23:00:00 10.8 0 Calma 4 Sudoeste 0 -- -- 83
2020-10-01 22:00:00 11.7 0 Calma 4 Este 0 -- -- 78
2020-10-01 21:00:00 12.9 0 Calma 4 Este 0 -- -- 73
2020-10-01 20:00:00 15.4 0 Calma 15 Sudeste 0 -- -- 63
2020-10-01 19:00:00 17.9 7 Sur 22 Sudoeste 0 -- -- 56
2020-10-01 18:00:00 19.2 5 Sur 15 Sudoeste 0 -- -- 53
2020-10-01 17:00:00 19.9 6 Sudoeste 19 Sur 0 -- -- 48
2020-10-01 16:00:00 20.4 5 Sudoeste 24 Sur 0 -- -- 49
2020-10-01 15:00:00 20.9 10 Sur 27 Sur 0 -- -- 48
2020-10-01 14:00:00 20.3 13 Sur 31 Sur 0 -- -- 48
2020-10-01 13:00:00 19.4 9 Sudoeste 20 Sudeste 0 -- -- 50
2020-10-01 12:00:00 14.2 0 Calma 5 Sudoeste 0 -- -- 68
2020-10-01 11:00:00 11.4 0 Calma 9 Norte 0 -- -- 79
2020-10-01 10:00:00 9.5 0 Calma 8 Norte 0 -- -- 88
2020-10-01 09:00:00 8.2 2 Noroeste 6 Norte 0 -- -- 93
2020-10-01 08:00:00 7.7 2 Sudoeste 8 Noroeste 0 -- -- 93
2020-10-01 07:00:00 7.8 0 Calma 10 Norte 0 -- -- 92
2020-10-01 06:00:00 8.1 0 Calma 8 Norte 0 -- -- 92
2020-10-01 05:00:00 8.4 0 Calma 4 Sur 0 -- -- 91
2020-10-01 04:00:00 9 0 Calma 5 Norte 0 -- -- 89
2020-10-01 03:00:00 9.1 0 Calma 4 Sudeste 0 -- -- 88
2020-10-01 02:00:00 9.3 0 Calma 5 Sudoeste 0 -- -- 87
2020-10-01 01:00:00 9.7 0 Calma 4 Sudeste 0 -- -- 86
2020-10-01 00:00:00 10.2 0 Calma 3 Sudeste 0 -- -- 84
2020-09-30 23:00:00 11.1 0 Calma 3 Este 0 -- -- 83
2020-09-30 22:00:00 12 0 Calma 3 Este 0 -- -- 78
2020-09-30 21:00:00 13.4 0 Calma 5 Sudeste 0 -- -- 75
2020-09-30 20:00:00 15.1 0 Calma 6 Sudoeste 0 -- -- 70
2020-09-30 19:00:00 20 3 Sur 14 Sudoeste 0 -- -- 52
2020-09-30 18:00:00 22.8 7 Sudoeste 19 Sudoeste 0 -- -- 42
2020-09-30 17:00:00 24 8 Sudoeste 22 Sudoeste 0 -- -- 40
2020-09-30 16:00:00 24 9 Sudoeste 23 Sudoeste 0 -- -- 38
2020-09-30 15:00:00 23.1 12 Sudoeste 24 Sudoeste 0 -- -- 37
2020-09-30 14:00:00 21.8 14 Sudoeste 23 Sudoeste 0 -- -- 42
2020-09-30 13:00:00 18.7 3 Norte 6 Norte 0 -- -- 59
2020-09-30 12:00:00 13.5 3 Norte 6 Norte 0 -- -- 72
2020-09-30 11:00:00 10.1 3 Nordeste 8 Norte 0 -- -- 85
2020-09-30 10:00:00 8 2 Nordeste 11 Noroeste 0 -- -- 95
2020-09-30 09:00:00 7.1 0 Calma 6 Nordeste 0 -- -- 97
2020-09-30 08:00:00 7 0 Calma 3 Sudoeste 0 -- -- 96
2020-09-30 07:00:00 7.3 0 Calma 9 Norte 0 -- -- 95
2020-09-30 06:00:00 7.5 2 Este 6 Noroeste 0 -- -- 95
2020-09-30 05:00:00 7.9 0 Calma 4 Sur 0 -- -- 94
2020-09-30 04:00:00 8.3 0 Calma 7 Noroeste 0 -- -- 94
2020-09-30 03:00:00 8.6 2 Sur 3 Este 0 -- -- 93
2020-09-30 02:00:00 9.2 0 Calma 4 Este 0 -- -- 91
2020-09-30 01:00:00 9.8 0 Calma 3 Norte 0 -- -- 89
2020-09-30 00:00:00 10.1 0 Calma 3 Sur 0 -- -- 88